Sa Pereyra, Argentina
Current Conditions -  °F | °C
As of 10:00 AM on Friday 31 Oct 2014 (Local Time) from SAAR Reporting Station
Thunderstorm Thunderstorm  
Wind Chill: 61°   Ceiling: 700
Heat Index: 61°   Visibility: 4mi
Dew Point: 61°   Wind: 15mph
Humidity: 100%   Direction: 140°SE
Pressure: 29.94"   Gusts: NA
Location:  31.57°S, 61.23°W
Report Text: SAAR 311300Z 14013KT 7000 -TSRA SCT004BKN007 OVC009 FEW045CB 16/16 Q1014
Loading
Personal Weather Stations






























Interactive Weather Map
Tropical Storm Tracking
New forecast layout! Learn more

10-Day Weather Forecast

Advertisements
Track Severe Weather on mobile